KIDA/IDA METAR and TAF weather

Enter ICAO airport designator
Station Type Date Time Source
KIDA METAR 2019/04/22 23:53 UTC NOAA

KIDA 222353Z 20005KT 10SM BKN070 17/01 A3016 RMK AO2 SLP196 T01720011 10178 20122 56011


Station Type Date Time Source
KIDA Decoded METAR 2019/04/22 23:53 UTC NOAA

IDAHO FALLS REGIONAL AIRPORT, ID, United States (KIDA) 43-31N 112-04W 1453M
Apr 22, 2019 - 07:53 PM EDT / 2019.04.22 2353 UTC
Wind: from the SSW (200 degrees) at 6 MPH (5 KT):0
Visibility: 10 mile(s):0
Sky conditions: mostly cloudy
Temperature: 63.0 F (17.2 C)
Dew Point: 34.0 F (1.1 C)
Relative Humidity: 33%
Pressure (altimeter): 30.16 in. Hg (1021 hPa)
Pressure tendency: 0.03 inches (1.1 hPa) lower than three hours ago
ob: KIDA 222353Z 20005KT 10SM BKN070 17/01 A3016 RMK AO2 SLP196 T01720011 10178 20122 56011
cycle: 0

Station Type Date Time Source
KIDA TAF 2019/04/22 18:24 UTC NOAA

TAF KIDA 221720Z 2218/2318 05008KT P6SM BKN080
FM222000 36006KT P6SM SCT050
FM230200 VRB05KT P6SM FEW040

Example: see airport list